• Join FlightAware (Why Join?)
  • Login
  • US Flag 
10:25AM EDT


 

Airport Tracker/Info


-or-


 

Live Flight TrackerFlight Track Log ✈ EJA102 ✈ 12-Jun-2014 ✈ KOKV - KPDK

Flight Track Log - Related Links

Times and Time Zones

All times are in EDT time to prevent confusion due to time zone crossing. See the EJA102 flight status page for this flight to view local times or setup timezone preferences in your user account.

Time Position Orientation Groundspeed Altitude Reporting Facility
EDT Latitude Longitude Course Direction KTS MPH feet Rate Location/Type
04:15PM 39.1167 -78.2333 218° Southwest 227 261 3,900  Level Potomac TRACON
04:16PM 39.0667 -78.3000 226° Southwest 262 302 6,000 2,280 Climbing Potomac TRACON
04:17PM 38.9792 -78.3739 213° Southwest 278 320 9,700 2,040 Climbing Washington Center
04:18PM 38.9131 -78.4356 216° Southwest 288 331 11,300 1,920 Climbing Washington Center
04:19PM 38.8431 -78.4889 211° Southwest 293 337 13,600 2,160 Climbing Washington Center
04:20PM 38.7689 -78.5364 207° Southwest 293 337 15,600 1,860 Climbing Washington Center
04:21PM 38.6947 -78.5867 208° Southwest 298 343 17,400 1,620 Climbing Washington Center
04:22PM 38.6206 -78.6342 207° Southwest 298 343 18,900 1,440 Climbing Washington Center
04:23PM 38.5442 -78.6869 208° Southwest 309 356 20,300 1,440 Climbing Washington Center
04:24PM 38.4656 -78.7392 207° Southwest 316 364 21,800 1,440 Climbing Washington Center
04:25PM 38.3914 -78.7892 208° Southwest 316 364 23,200 1,380 Climbing Washington Center
04:26PM 38.3108 -78.8411 207° Southwest 316 364 24,700 840 Climbing Washington Center
04:27PM 38.2194 -78.8981 206° Southwest 321 369 25,000 720 Climbing Washington Center
04:29PM 38.0433 -79.0117 207° Southwest 356 410 27,000 780 Climbing Washington Center
04:30PM 37.9497 -79.0731 207° Southwest 370 426 27,400 840 Climbing Washington Center
04:31PM 37.8767 -79.1433 217° Southwest 384 442 28,700 1,320 Climbing Washington Center
04:32PM 37.8092 -79.2403 229° Southwest 374 430 30,100 1,380 Climbing Washington Center
04:33PM 37.7331 -79.3414 226° Southwest 374 430 31,500 1,140 Climbing Washington Center
04:34PM 37.6719 -79.4250 227° Southwest 367 422 32,400 960 Climbing Washington Center
04:35PM 37.5956 -79.5286 227° Southwest 372 428 33,500 900 Climbing Washington Center
04:36PM 37.5342 -79.6172 229° Southwest 372 428 34,300 900 Climbing Washington Center
04:37PM 37.4519 -79.7097 222° Southwest 372 428 35,400 1,140 Climbing Washington Center
04:38PM 37.3861 -79.7975 227° Southwest 355 409 36,600 1,140 Climbing Washington Center
04:39PM 37.3219 -79.8986 231° Southwest 361 415 37,700 1,140 Climbing Washington Center
04:40PM 37.2581 -79.9914 229° Southwest 365 420 38,900 660 Climbing Washington Center
04:42PM 37.1203 -80.2022 231° Southwest 342 394 40,000 300 Climbing Atlanta Center
04:43PM 37.0544 -80.3017 230° Southwest 365 420 40,000  Level Atlanta Center
04:44PM 36.9867 -80.4008 229° Southwest 379 436 40,000  Level Atlanta Center
04:45PM 36.9186 -80.5053 231° Southwest 385 443 40,000  Level Atlanta Center
04:46PM 36.8467 -80.6097 229° Southwest 390 449 40,000  Level Atlanta Center
04:47PM 36.7786 -80.7136 231° Southwest 390 449 40,000  Level Atlanta Center
04:48PM 36.7083 -80.8203 231° Southwest 390 449 40,000  Level Atlanta Center
04:49PM 36.6381 -80.9239 230° Southwest 390 449 40,000  Level Atlanta Center
04:50PM 36.5697 -81.0272 231° Southwest 390 449 40,000  Level Atlanta Center
04:51PM 36.5053 -81.1228 230° Southwest 390 449 40,000  Level Atlanta Center
04:52PM 36.4369 -81.2258 231° Southwest 390 449 40,000  Level Atlanta Center
04:53PM 36.3664 -81.3314 230° Southwest 395 455 40,000  Level Atlanta Center
04:54PM 36.2933 -81.4344 229° Southwest 395 455 40,000  Level Atlanta Center
04:55PM 36.2225 -81.5397 230° Southwest 395 455 40,000  Level Atlanta Center
04:56PM 36.1408 -81.6269 221° Southwest 395 455 40,000  Level Atlanta Center
04:57PM 36.0506 -81.6964 212° Southwest 395 455 40,000  Level Atlanta Center
04:58PM 35.9581 -81.7658 211° Southwest 389 448 40,000  Level Atlanta Center
04:59PM 35.8633 -81.8325 210° Southwest 389 448 40,000  Level Atlanta Center
05:00PM 35.7664 -81.8967 208° Southwest 394 453 40,000  Level Atlanta Center
05:01PM 35.6714 -81.9631 210° Southwest 394 453 40,000  Level Atlanta Center
05:02PM 35.5853 -82.0469 218° Southwest 399 459 40,000 -600 Level Atlanta Center
05:03PM 35.5161 -82.1583 233° Southwest 392 451 38,900 -1,500 Descending Atlanta Center
05:04PM 35.4469 -82.2694 233° Southwest 413 475 37,000 -1,920 Descending Atlanta Center
05:05PM 35.3794 -82.3806 233° Southwest 418 481 35,100 -1,800 Descending Atlanta Center
05:06PM 35.3161 -82.4861 234° Southwest 410 472 33,400 -1,800 Descending Atlanta Center
05:07PM 35.2508 -82.5892 232° Southwest 405 466 31,600 -1,740 Descending Atlanta Center
05:08PM 35.1789 -82.6894 229° Southwest 399 459 30,000 -1,680 Descending Atlanta Center
05:09PM 35.1006 -82.7822 224° Southwest 399 459 28,300 -1,680 Descending Atlanta Center
05:10PM 35.0181 -82.8797 224° Southwest 400 460 26,700 -1,680 Descending Atlanta Center
05:11PM 34.9333 -82.9772 223° Southwest 414 476 25,000 -1,800 Descending Atlanta Center
05:12PM 34.8444 -83.0794 223° Southwest 414 476 23,200 -1,740 Descending Atlanta Center
05:13PM 34.7594 -83.1717 222° Southwest 419 482 21,600 -1,620 Descending Atlanta Center
05:14PM 34.6872 -83.2633 226° Southwest 414 476 20,000 -1,980 Descending Atlanta Center
05:15PM 34.5958 -83.3650 222° Southwest 414 476 17,700 -2,220 Descending Atlanta Center
05:16PM 34.5192 -83.4589 225° Southwest 414 476 15,600 -2,100 Descending Atlanta Center
05:17PM 34.4422 -83.5425 222° Southwest 395 455 13,600 -1,980 Descending Atlanta Center
05:18PM 34.3675 -83.6286 224° Southwest 385 443 11,700 -1,800 Descending Atlanta Center
05:19PM 34.3050 -83.6969 222° Southwest 355 409 10,100 -1,560 Descending Atlanta Center
05:20PM 34.2531 -83.7622 226° Southwest 301 346 8,600 -1,080 Descending Atlanta Center
05:21PM 34.1969 -83.8253 223° Southwest 283 326 8,000 -300 Descending Atlanta Center
05:22PM 34.1489 -83.8958 231° Southwest 277 319 8,000 -600 Level Atlanta Center
05:23PM 34.1011 -83.9711 233° Southwest 282 325 6,900 -1,380 Descending Atlanta Center
05:24PM 34.0531 -84.0414 230° Southwest 282 325 5,300 -1,500 Descending Atlanta Center
05:25PM 34.0156 -84.1114 237° Southwest 270 311 4,000 -720 Descending Atlanta Center
05:26PM 33.9861 -84.1717 240° Southwest 241 277 3,900 -420 Descending Atlanta Center
05:27PM 33.9569 -84.2217 235° Southwest 206 237 3,200 -840 Descending Atlanta Center
05:28PM 33.9361 -84.2617 238° Southwest 175 201 2,300 -900 Descending Atlanta Center
05:31PM 33.8756 -84.3020 248° West  Level Estimated
05:38PM 33.8756 -84.3020 248° West  Level Estimated
05:39PM 33.8756 -84.3020 248° West  Level Estimated